Boydton, VA (23917)

7:28 PM EDT on July 03, 2015 (GMT -0400)
KUSTOM WIRELess | | Change Station
CLOSE
Current Station
Personal Weather Station
Location: 372-0614 Muck Cross, VA
Elevation: 424 ft
Nearby Weather Stations

Elev 424 ft 36.73 °N, 78.36 °W | Updated 1 minute ago

Rain
Rain
73.9 °F
Feels Like 73.9 °F
N
0.0
Wind Variable Wind from ENE
Gusts 0.0 mph

Today
High -- | Low -- °F
--% Chance of Precip.
Yesterday
High -- | Low -- °F
Precip. -- in
5:59 AM 8:35 PM
Waning Gibbous, 95% visible
Pressure 29.95 in
Visibility 3.0 miles
Clouds Scattered Clouds 400 ft
Overcast 2100 ft
Dew Point 74 °F
Humidity 100%
Rainfall 0.36 in
Snow Depth Not available.
UV 0 out of 12
Pollen .50 out of 12
Air Quality Not available.
Flu Activity Not available.
METAR KAVC 032316Z AUTO 00000KT 3SM SCT004 OVC021 23/22 A2995 RMK AO2 P0003 T02250222

More Conditions Fewer Conditions

Pressure 29.95 in
Visibility 3.0 miles
Clouds Scattered Clouds 400 ft
Overcast 2100 ft
Dew Point 74 °F
Humidity 100%
Rainfall 0.36 in
Snow Depth Not available.
UV 0 out of 12
Pollen .50 out of 12
Air Quality Not available.
Flu Activity Not available.
METAR KAVC 032316Z AUTO 00000KT 3SM SCT004 OVC021 23/22 A2995 RMK AO2 P0003 T02250222

More Conditions Fewer Conditions

10-Day Weather Forecast

×

Almanac

Astronomy

Jul. 03, 2015 Rise Set
Actual Time
Civil Twilight
Nautical Twilight
Astronomical Twilight
Moon
Length of Visible Light
Length of Day
Tomorrow will be .
, % of the Moon is Illuminated

Today's Extremes

State Highs State Lows

Community

WunderPhotos

Upload Photos

1,834,821 photos uploaded!

WunderBlogs® & News

Nearby

Air Quality

  Air Quality AQ Index Pollutant
Not available.

Snow Depth

Station Depth Elevation

Earthquake Activity

City Distance Mag. Time & Date
Minimum magnitude displayed is 2.5.

Coastal Water Temperatures

Place Temperature

Stations

Nearby Weather Stations

Station Location Temp. Windchill Dew Point Humidity Wind Precip. Elev Updated Type